Latest Weather Observations for Mortlake

IDV60801

Issued at 12:02 pm EST Friday 28 August 2015 (issued every 30 minutes, with the page automatically refreshed every 10 minutes)

About weather observations | Map of weather stations | Latest weather observations for VIC | Other Formats
Station Details ID: 090176 Name: MORTLAKE RACECOURSE Lat: -38.07 Lon: 142.77 Height: 130.0 m
Data from the previous 72 hours. | See also: Recent months at Mortlake
Date/Time
EST
Temp
°C
App
Temp
°C
Dew
Point
Rel
Hum
%
Delta-T
°C
Wind Press
QNH
hPa
Press
MSL
hPa
Rain
since 9 am
mm
Dir
 
Spd
km/h
Gust
km/h
Spd
kts
Gust
kts
28/12:00pm 9.9 6.1 9.8 99 0.1 SSW 20 26 11 14 1027.4 1027.6 0.4
28/11:30am 11.3 9.9 9.6 89 0.9 SSE 7 11 4 6 1027.5 1027.8 0.0
28/11:00am 10.8 8.3 8.4 85 1.2 S 11 15 6 8 1027.7 1028.0 0.0
28/10:30am 10.5 7.2 8.1 85 1.2 S 15 20 8 11 1027.6 1027.9 0.0
28/10:00am 11.3 8.8 8.0 80 1.6 SSW 11 22 6 12 1027.6 1027.9 0.0
28/09:30am 10.3 7.9 7.0 80 1.6 SSW 9 13 5 7 1027.6 1027.9 0.0
28/09:00am 9.8 7.9 7.4 85 1.1 SW 7 9 4 5 1027.4 1027.6 2.4
28/08:30am 8.2 6.3 7.4 95 0.4 SW 7 9 4 5 1027.3 1027.5 2.4
28/08:00am 7.6 5.6 7.2 97 0.2 SSW 7 11 4 6 1027.1 1027.3 2.4
28/07:30am 7.2 5.4 7.1 99 0.0 WSW 6 11 3 6 1027.0 1027.2 2.4
28/07:00am 6.7 5.2 6.6 99 0.0 S 4 6 2 3 1026.7 1026.9 2.4
28/06:30am 6.6 5.4 6.5 99 0.0 S 2 4 1 2 1026.2 1026.4 2.4
28/06:00am 6.5 4.5 6.4 99 0.0 SSW 6 6 3 3 1026.2 1026.4 2.4
28/05:30am 7.0 5.1 6.9 99 0.0 WSW 6 7 3 4 1026.0 1026.2 2.4
28/05:00am 6.7 4.8 6.6 99 0.0 S 6 9 3 5 1025.9 1026.1 2.4
28/04:30am 7.2 4.8 7.1 99 0.0 SSW 9 11 5 6 1025.8 1026.0 2.4
28/04:00am 7.3 4.6 7.2 99 0.0 S 11 15 6 8 1025.7 1025.9 2.4
28/03:30am 7.0 4.2 6.9 99 0.0 SSW 11 13 6 7 1025.7 1025.9 2.4
28/03:00am 7.6 4.6 7.5 99 0.0 SSW 13 15 7 8 1025.8 1026.0 2.4
28/02:30am 8.3 5.0 8.2 99 0.0 SSW 15 19 8 10 1025.8 1026.0 2.4
28/02:00am 8.6 6.2 8.5 99 0.0 SSW 11 17 6 9 1025.9 1026.1 2.4
28/01:30am 8.8 5.7 8.7 99 0.0 SSW 15 22 8 12 1025.8 1026.0 2.4
28/01:00am 8.7 6.3 8.6 99 0.0 SW 11 15 6 8 1025.7 1025.9 2.4
28/12:30am 8.9 6.9 8.8 99 0.0 SW 9 11 5 6 1025.6 1025.8 2.4
28/12:00am 9.0 6.7 8.9 99 0.0 SSW 11 13 6 7 1025.5 1025.7 2.4
 
Date/Time
EST
Temp
°C
App
Temp
°C
Dew
Point
Rel
Hum
%
Delta-T
°C
Wind Press
QNH
hPa
Press
MSL
hPa
Rain
since 9 am
mm
Dir
 
Spd
km/h
Gust
km/h
Spd
kts
Gust
kts
27/11:30pm 8.6 6.9 8.5 99 0.0 SSW 7 9 4 5 1025.5 1025.7 2.4
27/11:00pm 8.7 6.7 8.6 99 0.0 SSW 9 11 5 6 1025.6 1025.8 2.4
27/10:30pm 9.1 7.2 9.0 99 0.0 SSW 9 11 5 6 1025.6 1025.8 2.4
27/10:00pm 9.1 7.6 9.0 99 0.0 S 7 9 4 5 1025.6 1025.8 2.4
27/09:30pm 9.3 7.8 9.2 99 0.0 S 7 11 4 6 1025.5 1025.7 2.4
27/09:00pm 9.3 6.3 9.2 99 0.0 S 15 24 8 13 1025.1 1025.3 2.4
27/08:30pm 9.3 4.6 9.2 99 0.0 S 24 33 13 18 1024.9 1025.1 2.4
27/08:00pm 10.0 6.4 9.9 99 0.1 S 19 28 10 15 1024.5 1024.7 1.8
27/07:30pm 10.0 6.8 9.9 99 0.1 S 17 24 9 13 1024.1 1024.3 1.0
27/07:00pm 10.2 6.5 10.1 99 0.1 S 20 28 11 15 1023.8 1024.0 0.8
27/06:30pm 10.5 7.0 10.3 99 0.1 SSW 19 26 10 14 1023.2 1023.4 0.2
27/06:00pm 10.6 8.3 10.4 99 0.1 SSW 13 17 7 9 1022.9 1023.1 0.2
27/05:30pm 11.1 7.8 10.9 99 0.1 SSW 19 28 10 15 1022.6 1022.8 0.2
27/05:00pm 11.9 7.9 10.6 92 0.7 SSW 22 32 12 17 1022.2 1022.4 0.0
27/04:30pm 12.5 8.2 10.6 88 1.0 SSW 24 33 13 18 1021.7 1022.0 0.0
27/04:00pm 12.9 8.6 10.6 86 1.2 SW 24 33 13 18 1021.4 1021.7 0.0
27/03:30pm 12.8 8.7 10.2 84 1.3 SSW 22 28 12 15 1021.2 1021.5 0.0
27/03:00pm 13.4 8.5 9.8 79 1.9 SSW 26 33 14 18 1021.1 1021.4 0.0
27/02:30pm 13.0 9.4 10.5 85 1.3 SSW 20 28 11 15 1021.3 1021.6 0.0
27/02:00pm 13.5 9.5 10.5 82 1.6 SSW 22 30 12 16 1021.3 1021.6 0.0
27/01:30pm 13.1 10.0 10.3 83 1.5 SSW 17 24 9 13 1021.6 1021.9 0.0
27/01:00pm 13.0 10.4 10.7 86 1.2 SSW 15 19 8 10 1021.9 1022.1 0.0
27/12:30pm 13.1 10.1 10.5 84 1.4 SW 17 24 9 13 1022.0 1022.2 0.0
27/12:00pm 13.6 11.9 11.1 85 1.3 SW 11 19 6 10 1022.2 1022.4 0.0
27/11:30am 11.7 8.5 10.1 90 0.8 SW 17 20 9 11 1022.6 1022.8 0.0
27/11:00am 11.7 10.0 11.2 97 0.3 SW 11 15 6 8 1022.7 1022.9 0.0
27/10:30am 10.9 9.9 10.9 100 0.0 WSW 7 17 4 9 1022.8 1023.0 0.0
27/10:00am 9.9 8.6 9.9 100 0.0 W 7 9 4 5 1022.8 1023.0 0.0
27/09:30am 8.9 7.5 8.9 100 0.0 W 6 7 3 4 1022.9 1023.1 0.0
27/09:00am 8.5 6.8 8.5 100 0.0 NNE 7 9 4 5 1022.8 1023.0 1.0
27/08:30am 8.1 6.9 8.1 100 0.0 NE 4 6 2 3 1022.8 1023.0 1.0
27/08:00am 7.4 6.8 7.4 100 0.0 CALM 0 0 0 0 1022.5 1022.7 1.0
27/07:30am 6.3 5.0 6.2 99 0.0 NE 2 4 1 2 1022.2 1022.4 1.0
27/07:00am 5.0 2.7 4.9 99 0.0 NE 6 7 3 4 1021.9 1022.1 1.0
27/06:30am 2.8 0.9 2.7 99 0.0 NE 2 4 1 2 1021.4 1021.7 1.0
27/06:00am 4.5 2.9 4.4 99 0.0 NE 2 4 1 2 1021.2 1021.5 1.0
27/05:30am 4.8 2.9 4.7 99 0.0 NE 4 6 2 3 1021.0 1021.2 1.0
27/05:00am 4.8 2.5 4.7 99 0.0 NE 6 6 3 3 1021.0 1021.2 1.0
27/04:30am 5.1 2.8 5.0 99 0.0 NE 6 6 3 3 1021.0 1021.2 1.0
27/04:00am 5.8 4.8 5.7 99 0.0 CALM 0 0 0 0 1021.0 1021.2 1.0
27/03:30am 7.1 6.4 7.0 99 0.0 CALM 0 0 0 0 1021.0 1021.2 1.0
27/03:00am 6.6 5.8 6.5 99 0.0 CALM 0 0 0 0 1021.3 1021.6 1.0
27/02:30am 7.1 6.4 7.0 99 0.0 CALM 0 0 0 0 1021.5 1021.8 1.0
27/02:00am 7.3 5.9 7.2 99 0.0 NE 4 4 2 2 1021.6 1021.9 1.0
27/01:30am 7.2 5.4 7.1 99 0.0 NE 6 6 3 3 1021.9 1022.1 1.0
27/01:00am 7.3 6.3 7.2 99 0.0 ENE 2 6 1 3 1022.1 1022.3 1.0
27/12:30am 8.1 7.6 8.0 99 0.0 CALM 0 0 0 0 1022.4 1022.6 1.0
27/12:00am 8.1 7.6 8.0 99 0.0 CALM 0 0 0 0 1022.5 1022.7 1.0
 
Date/Time
EST
Temp
°C
App
Temp
°C
Dew
Point
Rel
Hum
%
Delta-T
°C
Wind Press
QNH
hPa
Press
MSL
hPa
Rain
since 9 am
mm
Dir
 
Spd
km/h
Gust
km/h
Spd
kts
Gust
kts
26/11:30pm 8.2 7.8 8.1 99 0.0 CALM 0 0 0 0 1022.8 1023.0 1.0
26/11:00pm 8.9 8.3 8.8 99 0.0 ENE 2 4 1 2 1023.0 1023.2 1.0
26/10:30pm 8.9 7.9 8.8 99 0.0 ENE 4 4 2 2 1023.2 1023.4 1.0
26/10:00pm 9.0 8.4 8.9 99 0.0 ENE 2 4 1 2 1023.2 1023.4 1.0
26/09:30pm 8.5 7.4 8.4 99 0.0 ENE 4 4 2 2 1023.2 1023.4 1.0
26/09:00pm 8.5 7.4 8.4 99 0.0 E 4 6 2 3 1023.2 1023.4 1.0
26/08:30pm 8.7 7.6 8.6 99 0.0 E 4 4 2 2 1023.3 1023.5 1.0
26/08:00pm 9.3 8.4 9.2 99 0.0 E 4 4 2 2 1023.4 1023.6 1.0
26/07:30pm 10.3 10.0 10.1 99 0.1 E 2 4 1 2 1023.3 1023.5 1.0
26/07:00pm 10.6 10.0 10.4 99 0.1 E 4 6 2 3 1023.3 1023.5 1.0
26/06:30pm 10.7 9.8 10.5 99 0.1 E 6 7 3 4 1022.9 1023.1 1.0
26/06:00pm 11.3 10.3 10.4 94 0.5 E 6 9 3 5 1023.0 1023.2 0.2
26/05:30pm 12.0 10.7 9.9 87 1.1 E 7 11 4 6 1022.8 1023.0 0.2
26/05:00pm 12.4 11.3 10.1 86 1.2 ENE 6 9 3 5 1022.6 1022.8 0.2
26/04:30pm 12.7 11.4 10.1 84 1.3 E 7 9 4 5 1022.5 1022.7 0.2
26/04:00pm 12.8 11.2 10.2 84 1.3 ENE 9 13 5 7 1022.4 1022.6 0.2
26/03:30pm 13.0 11.7 10.0 82 1.6 ENE 7 11 4 6 1022.6 1022.8 0.2
26/03:00pm 12.8 11.5 10.0 83 1.4 E 7 9 4 5 1022.8 1023.0 0.2
26/02:30pm 12.7 11.6 9.9 83 1.4 ENE 6 9 3 5 1023.1 1023.3 0.2
26/02:00pm 12.6 11.1 9.2 80 1.7 E 7 11 4 6 1023.2 1023.4 0.2
26/01:30pm 12.9 11.1 9.5 80 1.7 ENE 9 17 5 9 1023.5 1023.7 0.2
26/01:00pm 12.8 11.0 9.6 81 1.6 NE 9 15 5 8 1023.7 1023.9 0.2
26/12:30pm 12.0 10.2 9.6 85 1.2 ENE 9 15 5 8 1024.1 1024.3 0.2
26/12:00pm 12.1 10.1 10.0 87 1.1 ENE 11 19 6 10 1024.7 1024.9 0.0
26/11:30am 12.0 9.9 9.7 86 1.2 ENE 11 17 6 9 1025.2 1025.4 0.0
26/11:00am 11.2 8.7 9.8 91 0.7 ENE 13 19 7 10 1025.5 1025.7 0.0
26/10:30am 10.5 7.9 9.4 93 0.6 ENE 13 22 7 12 1025.7 1025.9 0.0
26/10:00am 9.7 6.7 9.1 96 0.3 E 15 20 8 11 1026.0 1026.2 0.0
26/09:30am 8.9 6.2 8.8 99 0.0 E 13 19 7 10 1026.1 1026.3 0.0
26/09:00am 8.5 6.0 8.4 99 0.0 E 11 20 6 11 1026.1 1026.3 0.6
26/08:30am 8.1 5.6 8.0 99 0.0 E 11 19 6 10 1026.1 1026.3 0.6
26/08:00am 7.8 5.2 7.7 99 0.0 E 11 15 6 8 1026.0 1026.2 0.6
26/07:30am 7.7 5.4 7.6 99 0.0 E 9 15 5 8 1025.9 1026.1 0.6
26/07:00am 7.6 5.7 7.5 99 0.0 E 7 13 4 7 1025.7 1025.9 0.2
26/06:30am 7.2 5.4 7.1 99 0.0 ESE 6 9 3 5 1025.6 1025.8 0.0
26/06:00am 6.8 4.7 6.7 99 0.0 SE 7 9 4 5 1025.5 1025.7 0.0
26/05:30am 6.8 4.9 6.7 99 0.0 SE 6 7 3 4 1025.5 1025.7 0.0
26/05:00am 6.4 5.6 6.3 99 0.0 CALM 0 0 0 0 1025.5 1025.7 0.0
26/04:30am 6.5 4.9 6.4 99 0.0 S 4 4 2 2 1025.5 1025.7 0.0
26/04:00am 6.1 4.4 6.0 99 0.0 SSE 4 4 2 2 1025.5 1025.7 0.0
26/03:30am 5.3 3.8 5.2 99 0.0 SSE 2 2 1 1 1025.7 1025.9 0.0
26/03:00am 5.5 3.3 5.4 99 0.0 SSE 6 7 3 4 1025.9 1026.1 0.0
26/02:30am 5.8 3.5 5.7 99 0.0 SSE 7 9 4 5 1026.3 1026.5 0.0
26/02:00am 5.8 3.5 5.7 99 0.0 SSE 7 7 4 4 1026.7 1026.9 0.0
26/01:30am 6.0 3.7 5.9 99 0.0 SSE 7 7 4 4 1027.0 1027.2 0.0
26/01:00am 6.8 4.3 6.5 98 0.1 SSE 9 9 5 5 1027.2 1027.4 0.0
26/12:30am 7.5 5.5 6.9 96 0.3 SSE 7 9 4 5 1027.4 1027.6 0.0
26/12:00am 7.8 5.8 7.1 95 0.3 SE 7 13 4 7 1027.6 1027.9 0.0
 
Date/Time
EST
Temp
°C
App
Temp
°C
Dew
Point
Rel
Hum
%
Delta-T
°C
Wind Press
QNH
hPa
Press
MSL
hPa
Rain
since 9 am
mm
Dir
 
Spd
km/h
Gust
km/h
Spd
kts
Gust
kts
25/11:30pm 7.7 5.3 7.0 95 0.3 SSE 9 15 5 8 1027.7 1028.0 0.0
25/11:00pm 7.9 5.1 6.8 93 0.5 SSE 11 17 6 9 1027.9 1028.2 0.0
25/10:30pm 8.2 5.4 7.0 92 0.6 SE 11 17 6 9 1028.0 1028.3 0.0
25/10:00pm 8.3 5.2 7.1 92 0.6 SE 13 19 7 10 1028.0 1028.3 0.0
25/09:30pm 8.5 4.6 7.1 91 0.7 SE 17 20 9 11 1028.0 1028.3 0.0
25/09:00pm 8.6 5.1 7.2 91 0.7 SE 15 20 8 11 1027.9 1028.2 0.0
25/08:30pm 8.9 5.8 7.2 89 0.8 SE 13 22 7 12 1027.9 1028.2 0.0
25/08:00pm 9.1 6.0 7.2 88 0.9 SSE 13 20 7 11 1027.9 1028.2 0.0
25/07:30pm 9.1 6.4 7.2 88 0.9 SE 11 17 6 9 1027.9 1028.2 0.0
25/07:00pm 9.3 6.6 7.3 87 0.9 SSE 11 17 6 9 1027.7 1028.0 0.0
25/06:30pm 9.6 6.9 7.2 85 1.1 SE 11 19 6 10 1027.4 1027.6 0.0
25/06:00pm 10.0 6.9 7.3 83 1.3 SE 13 17 7 9 1027.1 1027.3 0.0
25/05:30pm 10.4 6.6 7.6 83 1.4 SSE 17 24 9 13 1026.7 1026.9 0.0
25/05:00pm 10.8 6.6 7.5 80 1.6 SSE 19 28 10 15 1026.5 1026.7 0.0
25/04:30pm 11.2 6.8 6.5 73 2.2 SE 19 24 10 13 1026.3 1026.5 0.0
25/04:00pm 11.7 7.2 6.2 69 2.6 SE 19 26 10 14 1026.3 1026.5 0.0
25/03:30pm 12.0 7.9 6.1 67 2.8 SE 17 24 9 13 1026.2 1026.4 0.0
25/03:00pm 12.1 7.5 6.4 68 2.7 SE 20 30 11 16 1026.3 1026.5 0.0
25/02:30pm 12.5 8.5 6.5 67 2.9 SE 17 26 9 14 1026.3 1026.5 0.0
25/02:00pm 12.1 8.6 7.2 72 2.4 SE 15 24 8 13 1026.4 1026.6 0.0
25/01:30pm 12.5 8.3 5.9 64 3.1 SE 17 30 9 16 1026.7 1026.9 0.0
25/01:00pm 11.1 7.0 6.0 71 2.4 SE 17 22 9 12 1027.2 1027.4 0.0
25/12:30pm 11.8 7.8 6.7 71 2.4 SE 17 26 9 14 1027.6 1027.9 0.0

Other Formats:

Comma delimited format used in spreadsheet applications
http://www.bom.gov.au/fwo/IDV60801/IDV60801.94840.axf

JavaScript Object Notation format (JSON) in row-major order
http://www.bom.gov.au/fwo/IDV60801/IDV60801.94840.json